sensor_id;sensor_type;location;lat;lon;timestamp;pressure;altitude;pressure_sealevel;temperature;humidity
70370;BME280;57790;51.356;-2.906;2023-09-19T00:02:07;100905.50;;;16.76;100.00
70370;BME280;57790;51.356;-2.906;2023-09-19T00:05:09;100902.78;;;16.70;100.00
70370;BME280;57790;51.356;-2.906;2023-09-19T00:08:09;100893.94;;;16.69;100.00
70370;BME280;57790;51.356;-2.906;2023-09-19T00:11:10;100891.84;;;16.64;100.00
70370;BME280;57790;51.356;-2.906;2023-09-19T00:14:11;100887.56;;;16.70;100.00
70370;BME280;57790;51.356;-2.906;2023-09-19T00:17:14;100901.34;;;16.67;100.00
70370;BME280;57790;51.356;-2.906;2023-09-19T00:20:16;100897.00;;;16.66;100.00
70370;BME280;57790;51.356;-2.906;2023-09-19T00:23:17;100891.84;;;16.64;100.00
70370;BME280;57790;51.356;-2.906;2023-09-19T00:26:19;100897.56;;;16.61;100.00
70370;BME280;57790;51.356;-2.906;2023-09-19T00:29:21;100897.56;;;16.61;100.00
70370;BME280;57790;51.356;-2.906;2023-09-19T00:32:23;100889.31;;;16.56;100.00
70370;BME280;57790;51.356;-2.906;2023-09-19T00:35:24;100877.97;;;16.54;100.00
70370;BME280;57790;51.356;-2.906;2023-09-19T00:38:24;100888.06;;;16.52;100.00
70370;BME280;57790;51.356;-2.906;2023-09-19T00:41:27;100879.97;;;16.46;100.00
70370;BME280;57790;51.356;-2.906;2023-09-19T00:44:30;100875.03;;;16.43;100.00
70370;BME280;57790;51.356;-2.906;2023-09-19T00:47:30;100876.88;;;16.42;100.00
70370;BME280;57790;51.356;-2.906;2023-09-19T00:50:31;100875.84;;;16.36;100.00
70370;BME280;57790;51.356;-2.906;2023-09-19T00:53:32;100878.94;;;16.40;100.00
70370;BME280;57790;51.356;-2.906;2023-09-19T00:56:34;100875.44;;;16.40;100.00
70370;BME280;57790;51.356;-2.906;2023-09-19T00:59:34;100875.84;;;16.43;100.00
70370;BME280;57790;51.356;-2.906;2023-09-19T01:02:35;100877.72;;;16.43;100.00
70370;BME280;57790;51.356;-2.906;2023-09-19T01:05:36;100879.34;;;16.37;100.00
70370;BME280;57790;51.356;-2.906;2023-09-19T01:08:36;100861.03;;;16.41;100.00
70370;BME280;57790;51.356;-2.906;2023-09-19T01:11:46;100874.56;;;16.32;100.00
70370;BME280;57790;51.356;-2.906;2023-09-19T01:14:55;100856.84;;;16.31;100.00
70370;BME280;57790;51.356;-2.906;2023-09-19T01:21:29;100867.31;;;16.26;100.00
70370;BME280;57790;51.356;-2.906;2023-09-19T01:25:14;100858.63;;;16.18;100.00
70370;BME280;57790;51.356;-2.906;2023-09-19T01:28:54;100866.84;;;16.16;100.00
70370;BME280;57790;51.356;-2.906;2023-09-19T01:32:04;100873.59;;;16.12;100.00
70370;BME280;57790;51.356;-2.906;2023-09-19T01:35:06;100872.59;;;16.13;100.00
70370;BME280;57790;51.356;-2.906;2023-09-19T01:38:12;100881.22;;;16.15;100.00
70370;BME280;57790;51.356;-2.906;2023-09-19T01:41:19;100880.59;;;16.13;100.00
70370;BME280;57790;51.356;-2.906;2023-09-19T01:44:55;100893.56;;;16.10;100.00
70370;BME280;57790;51.356;-2.906;2023-09-19T01:48:08;100890.25;;;16.08;100.00
70370;BME280;57790;51.356;-2.906;2023-09-19T01:51:27;100885.66;;;16.01;100.00
70370;BME280;57790;51.356;-2.906;2023-09-19T01:54:38;100881.13;;;16.02;100.00
70370;BME280;57790;51.356;-2.906;2023-09-19T01:57:51;100874.53;;;15.98;100.00
70370;BME280;57790;51.356;-2.906;2023-09-19T02:00:56;100879.66;;;15.93;100.00
70370;BME280;57790;51.356;-2.906;2023-09-19T02:03:58;100885.19;;;15.91;100.00
70370;BME280;57790;51.356;-2.906;2023-09-19T02:06:59;100869.16;;;15.91;100.00
70370;BME280;57790;51.356;-2.906;2023-09-19T02:10:01;100874.31;;;15.93;100.00
70370;BME280;57790;51.356;-2.906;2023-09-19T02:13:03;100870.16;;;15.90;100.00
70370;BME280;57790;51.356;-2.906;2023-09-19T02:16:04;100858.38;;;15.85;100.00
70370;BME280;57790;51.356;-2.906;2023-09-19T02:19:05;100861.06;;;15.85;100.00
70370;BME280;57790;51.356;-2.906;2023-09-19T02:22:06;100845.03;;;15.85;100.00
70370;BME280;57790;51.356;-2.906;2023-09-19T02:25:08;100855.50;;;15.86;100.00
70370;BME280;57790;51.356;-2.906;2023-09-19T02:28:08;100845.22;;;15.83;100.00
70370;BME280;57790;51.356;-2.906;2023-09-19T02:31:09;100845.03;;;15.85;100.00
70370;BME280;57790;51.356;-2.906;2023-09-19T02:34:11;100842.16;;;15.86;100.00
70370;BME280;57790;51.356;-2.906;2023-09-19T02:37:11;100839.66;;;15.85;100.00
70370;BME280;57790;51.356;-2.906;2023-09-19T02:40:14;100840.91;;;15.82;100.00
70370;BME280;57790;51.356;-2.906;2023-09-19T02:43:21;100840.25;;;15.80;100.00
70370;BME280;57790;51.356;-2.906;2023-09-19T02:46:22;100835.53;;;15.82;100.00
70370;BME280;57790;51.356;-2.906;2023-09-19T02:49:22;100835.75;;;15.81;100.00
70370;BME280;57790;51.356;-2.906;2023-09-19T02:52:23;100831.22;;;15.81;100.00
70370;BME280;57790;51.356;-2.906;2023-09-19T02:55:25;100825.06;;;15.81;100.00
70370;BME280;57790;51.356;-2.906;2023-09-19T02:58:25;100812.31;;;15.83;100.00
70370;BME280;57790;51.356;-2.906;2023-09-19T03:01:28;100815.19;;;15.81;100.00
70370;BME280;57790;51.356;-2.906;2023-09-19T03:04:28;100803.22;;;15.77;100.00
70370;BME280;57790;51.356;-2.906;2023-09-19T03:07:29;100795.00;;;15.79;100.00
70370;BME280;57790;51.356;-2.906;2023-09-19T03:10:29;100790.28;;;15.81;100.00
70370;BME280;57790;51.356;-2.906;2023-09-19T03:13:32;100782.69;;;15.77;100.00
70370;BME280;57790;51.356;-2.906;2023-09-19T03:16:32;100773.22;;;15.82;100.00
70370;BME280;57790;51.356;-2.906;2023-09-19T03:19:33;100758.22;;;15.81;100.00
70370;BME280;57790;51.356;-2.906;2023-09-19T03:22:34;100759.03;;;15.81;100.00
70370;BME280;57790;51.356;-2.906;2023-09-19T03:25:34;100756.16;;;15.83;100.00
70370;BME280;57790;51.356;-2.906;2023-09-19T03:28:36;100752.88;;;15.81;100.00
70370;BME280;57790;51.356;-2.906;2023-09-19T03:31:36;100760.06;;;15.80;100.00
70370;BME280;57790;51.356;-2.906;2023-09-19T03:34:37;100757.19;;;15.82;100.00
70370;BME280;57790;51.356;-2.906;2023-09-19T03:37:41;100757.41;;;15.87;100.00
70370;BME280;57790;51.356;-2.906;2023-09-19T03:40:43;100749.59;;;15.85;100.00
70370;BME280;57790;51.356;-2.906;2023-09-19T03:43:44;100741.19;;;15.88;100.00
70370;BME280;57790;51.356;-2.906;2023-09-19T03:46:44;100742.59;;;15.84;100.00
70370;BME280;57790;51.356;-2.906;2023-09-19T03:49:45;100737.22;;;15.77;100.00
70370;BME280;57790;51.356;-2.906;2023-09-19T03:52:45;100735.81;;;15.82;100.00
70370;BME280;57790;51.356;-2.906;2023-09-19T03:55:45;100740.72;;;15.78;100.00
70370;BME280;57790;51.356;-2.906;2023-09-19T03:58:46;100749.38;;;15.80;100.00
70370;BME280;57790;51.356;-2.906;2023-09-19T04:01:47;100748.97;;;15.83;100.00
70370;BME280;57790;51.356;-2.906;2023-09-19T04:04:48;100743.63;;;15.83;100.00
70370;BME280;57790;51.356;-2.906;2023-09-19T04:07:49;100735.56;;;15.76;100.00
70370;BME280;57790;51.356;-2.906;2023-09-19T04:10:50;100736.63;;;15.82;100.00
70370;BME280;57790;51.356;-2.906;2023-09-19T04:13:51;100730.84;;;15.79;100.00
70370;BME280;57790;51.356;-2.906;2023-09-19T04:16:51;100734.72;;;15.76;100.00
70370;BME280;57790;51.356;-2.906;2023-09-19T04:19:52;100739.69;;;15.79;100.00
70370;BME280;57790;51.356;-2.906;2023-09-19T04:22:53;100722.38;;;15.75;100.00
70370;BME280;57790;51.356;-2.906;2023-09-19T04:25:54;100730.41;;;15.75;100.00
70370;BME280;57790;51.356;-2.906;2023-09-19T04:28:55;100734.94;;;15.74;100.00
70370;BME280;57790;51.356;-2.906;2023-09-19T04:31:56;100741.28;;;15.73;100.00
70370;BME280;57790;51.356;-2.906;2023-09-19T04:34:59;100721.56;;;15.74;100.00
70370;BME280;57790;51.356;-2.906;2023-09-19T04:38:02;100723.41;;;15.74;100.00
70370;BME280;57790;51.356;-2.906;2023-09-19T04:41:03;100711.31;;;15.78;100.00
70370;BME280;57790;51.356;-2.906;2023-09-19T04:44:05;100710.50;;;15.77;100.00
70370;BME280;57790;51.356;-2.906;2023-09-19T04:47:05;100710.03;;;15.74;100.00
70370;BME280;57790;51.356;-2.906;2023-09-19T04:50:08;100703.09;;;15.80;100.00
70370;BME280;57790;51.356;-2.906;2023-09-19T04:53:11;100712.78;;;15.81;100.00
70370;BME280;57790;51.356;-2.906;2023-09-19T04:56:12;100708.00;;;15.76;100.00
70370;BME280;57790;51.356;-2.906;2023-09-19T04:59:13;100719.91;;;15.73;100.00
70370;BME280;57790;51.356;-2.906;2023-09-19T05:02:15;100708.00;;;15.76;100.00
70370;BME280;57790;51.356;-2.906;2023-09-19T05:05:16;100704.31;;;15.77;100.00
70370;BME280;57790;51.356;-2.906;2023-09-19T05:08:19;100696.88;;;15.72;100.00
70370;BME280;57790;51.356;-2.906;2023-09-19T05:11:19;100687.22;;;15.71;100.00
70370;BME280;57790;51.356;-2.906;2023-09-19T05:14:24;100684.34;;;15.73;100.00
70370;BME280;57790;51.356;-2.906;2023-09-19T05:17:25;100679.19;;;15.71;100.00
70370;BME280;57790;51.356;-2.906;2023-09-19T05:20:25;100675.50;;;15.72;100.00
70370;BME280;57790;51.356;-2.906;2023-09-19T05:23:37;100675.28;;;15.74;100.00
70370;BME280;57790;51.356;-2.906;2023-09-19T05:26:38;100660.06;;;15.68;100.00
70370;BME280;57790;51.356;-2.906;2023-09-19T05:29:39;100662.31;;;15.71;100.00
70370;BME280;57790;51.356;-2.906;2023-09-19T05:32:40;100660.06;;;15.74;100.00
70370;BME280;57790;51.356;-2.906;2023-09-19T05:35:41;100660.88;;;15.68;100.00
70370;BME280;57790;51.356;-2.906;2023-09-19T05:38:42;100653.09;;;15.73;100.00
70370;BME280;57790;51.356;-2.906;2023-09-19T05:41:42;100650.41;;;15.67;100.00
70370;BME280;57790;51.356;-2.906;2023-09-19T05:44:43;100638.28;;;15.71;100.00
70370;BME280;57790;51.356;-2.906;2023-09-19T05:47:43;100642.41;;;15.73;100.00
70370;BME280;57790;51.356;-2.906;2023-09-19T05:51:01;100640.75;;;15.72;100.00
70370;BME280;57790;51.356;-2.906;2023-09-19T05:54:01;100639.09;;;15.71;100.00
70370;BME280;57790;51.356;-2.906;2023-09-19T05:57:02;100624.31;;;15.75;100.00
70370;BME280;57790;51.356;-2.906;2023-09-19T06:00:02;100625.34;;;15.74;100.00
70370;BME280;57790;51.356;-2.906;2023-09-19T06:03:09;100615.91;;;15.79;100.00
70370;BME280;57790;51.356;-2.906;2023-09-19T06:06:09;100618.34;;;15.73;100.00
70370;BME280;57790;51.356;-2.906;2023-09-19T06:09:10;100624.31;;;15.75;100.00
70370;BME280;57790;51.356;-2.906;2023-09-19T06:12:10;100615.31;;;15.83;100.00
70370;BME280;57790;51.356;-2.906;2023-09-19T06:15:13;100611.59;;;15.77;100.00
70370;BME280;57790;51.356;-2.906;2023-09-19T06:18:19;100612.84;;;15.82;100.00
70370;BME280;57790;51.356;-2.906;2023-09-19T06:21:29;100612.59;;;15.76;100.00
70370;BME280;57790;51.356;-2.906;2023-09-19T06:24:29;100605.59;;;15.75;100.00
70370;BME280;57790;51.356;-2.906;2023-09-19T06:27:30;100603.75;;;15.76;100.00
70370;BME280;57790;51.356;-2.906;2023-09-19T06:30:31;100608.25;;;15.75;100.00
70370;BME280;57790;51.356;-2.906;2023-09-19T06:33:32;100609.53;;;15.80;100.00
70370;BME280;57790;51.356;-2.906;2023-09-19T06:36:32;100593.47;;;15.73;100.00
70370;BME280;57790;51.356;-2.906;2023-09-19T06:39:33;100609.34;;;15.81;100.00
70370;BME280;57790;51.356;-2.906;2023-09-19T06:42:33;100609.75;;;15.85;100.00
70370;BME280;57790;51.356;-2.906;2023-09-19T06:45:34;100618.81;;;15.84;100.00
70370;BME280;57790;51.356;-2.906;2023-09-19T06:48:34;100611.81;;;15.83;100.00
70370;BME280;57790;51.356;-2.906;2023-09-19T06:51:34;100620.66;;;15.83;100.00
70370;BME280;57790;51.356;-2.906;2023-09-19T06:54:36;100625.78;;;15.85;100.00
70370;BME280;57790;51.356;-2.906;2023-09-19T06:57:37;100622.28;;;15.84;100.00
70370;BME280;57790;51.356;-2.906;2023-09-19T07:00:38;100622.28;;;15.84;100.00
70370;BME280;57790;51.356;-2.906;2023-09-19T07:03:38;100626.00;;;15.83;100.00
70370;BME280;57790;51.356;-2.906;2023-09-19T07:06:40;100626.00;;;15.90;100.00
70370;BME280;57790;51.356;-2.906;2023-09-19T07:09:40;100632.38;;;15.82;100.00
70370;BME280;57790;51.356;-2.906;2023-09-19T07:12:42;100622.28;;;15.84;100.00
70370;BME280;57790;51.356;-2.906;2023-09-19T07:15:43;100619.41;;;15.86;100.00
70370;BME280;57790;51.356;-2.906;2023-09-19T07:18:47;100615.31;;;15.90;100.00
70370;BME280;57790;51.356;-2.906;2023-09-19T07:21:47;100598.03;;;15.86;100.00
70370;BME280;57790;51.356;-2.906;2023-09-19T07:24:50;100609.75;;;15.85;100.00
70370;BME280;57790;51.356;-2.906;2023-09-19T07:27:51;100593.53;;;15.93;100.00
70370;BME280;57790;51.356;-2.906;2023-09-19T07:30:51;100595.81;;;15.96;100.00
70370;BME280;57790;51.356;-2.906;2023-09-19T07:33:52;100586.97;;;15.95;100.00
70370;BME280;57790;51.356;-2.906;2023-09-19T07:36:53;100592.31;;;15.95;100.00
70370;BME280;57790;51.356;-2.906;2023-09-19T07:39:54;100575.25;;;15.96;100.00
70370;BME280;57790;51.356;-2.906;2023-09-19T07:42:55;100579.78;;;15.96;100.00
70370;BME280;57790;51.356;-2.906;2023-09-19T07:45:56;100586.75;;;15.97;100.00
70370;BME280;57790;51.356;-2.906;2023-09-19T07:48:57;100580.81;;;16.01;100.00
70370;BME280;57790;51.356;-2.906;2023-09-19T07:51:57;100586.16;;;16.01;100.00
70370;BME280;57790;51.356;-2.906;2023-09-19T07:54:59;100583.69;;;16.00;100.00
70370;BME280;57790;51.356;-2.906;2023-09-19T07:58:01;100589.03;;;16.00;100.00
70370;BME280;57790;51.356;-2.906;2023-09-19T08:01:08;100588.63;;;16.03;100.00
70370;BME280;57790;51.356;-2.906;2023-09-19T08:04:09;100591.50;;;16.01;100.00
70370;BME280;57790;51.356;-2.906;2023-09-19T08:07:09;100582.03;;;16.05;100.00
70370;BME280;57790;51.356;-2.906;2023-09-19T08:10:11;100584.09;;;16.03;100.00
70370;BME280;57790;51.356;-2.906;2023-09-19T08:13:15;100592.31;;;16.02;100.00
70370;BME280;57790;51.356;-2.906;2023-09-19T08:16:17;100590.72;;;16.08;100.00
70370;BME280;57790;51.356;-2.906;2023-09-19T08:19:19;100592.72;;;16.05;100.00
70370;BME280;57790;51.356;-2.906;2023-09-19T08:22:23;100589.88;;;16.07;100.00
70370;BME280;57790;51.356;-2.906;2023-09-19T08:25:24;100597.91;;;16.07;100.00
70370;BME280;57790;51.356;-2.906;2023-09-19T08:28:26;100595.84;;;16.09;100.00
70370;BME280;57790;51.356;-2.906;2023-09-19T08:31:29;100586.59;;;16.12;100.00
70370;BME280;57790;51.356;-2.906;2023-09-19T08:34:30;100593.38;;;16.14;100.00
70370;BME280;57790;51.356;-2.906;2023-09-19T08:37:33;100588.66;;;16.16;100.00
70370;BME280;57790;51.356;-2.906;2023-09-19T08:40:38;100592.75;;;16.12;100.00
70370;BME280;57790;51.356;-2.906;2023-09-19T08:43:40;100573.88;;;16.20;100.00
70370;BME280;57790;51.356;-2.906;2023-09-19T08:46:41;100593.22;;;16.22;100.00
70370;BME280;57790;51.356;-2.906;2023-09-19T08:50:01;100587.63;;;16.17;100.00
70370;BME280;57790;51.356;-2.906;2023-09-19T08:53:10;100590.28;;;16.17;100.00
70370;BME280;57790;51.356;-2.906;2023-09-19T08:56:13;100591.75;;;16.20;100.00
70370;BME280;57790;51.356;-2.906;2023-09-19T08:59:16;100590.91;;;16.19;100.00
70370;BME280;57790;51.356;-2.906;2023-09-19T09:02:24;100585.78;;;16.18;100.00
70370;BME280;57790;51.356;-2.906;2023-09-19T09:05:25;100589.47;;;16.17;100.00
70370;BME280;57790;51.356;-2.906;2023-09-19T09:08:27;100587.03;;;16.22;100.00
70370;BME280;57790;51.356;-2.906;2023-09-19T09:11:34;100587.66;;;16.24;100.00
70370;BME280;57790;51.356;-2.906;2023-09-19T09:14:34;100590.31;;;16.24;100.00
70370;BME280;57790;51.356;-2.906;2023-09-19T09:17:34;100592.38;;;16.28;100.00
70370;BME280;57790;51.356;-2.906;2023-09-19T09:20:35;100591.56;;;16.28;100.00
70370;BME280;57790;51.356;-2.906;2023-09-19T09:23:36;100595.88;;;16.29;100.00
70370;BME280;57790;51.356;-2.906;2023-09-19T09:29:44;100601.66;;;16.32;100.00
70370;BME280;57790;51.356;-2.906;2023-09-19T09:32:47;100582.50;;;16.29;100.00
70370;BME280;57790;51.356;-2.906;2023-09-19T09:35:55;100581.06;;;16.26;100.00
70370;BME280;57790;51.356;-2.906;2023-09-19T09:39:00;100583.31;;;16.29;100.00
70370;BME280;57790;51.356;-2.906;2023-09-19T09:42:32;100588.06;;;16.34;100.00
70370;BME280;57790;51.356;-2.906;2023-09-19T09:45:33;100581.06;;;16.33;100.00
70370;BME280;57790;51.356;-2.906;2023-09-19T09:48:34;100587.88;;;16.35;100.00
70370;BME280;57790;51.356;-2.906;2023-09-19T09:55:00;100583.16;;;16.38;100.00
70370;BME280;57790;51.356;-2.906;2023-09-19T09:58:16;100577.78;;;16.31;100.00
70370;BME280;57790;51.356;-2.906;2023-09-19T10:01:17;100581.50;;;16.36;100.00
70370;BME280;57790;51.356;-2.906;2023-09-19T10:04:28;100573.28;;;16.38;100.00
70370;BME280;57790;51.356;-2.906;2023-09-19T10:07:36;100569.78;;;16.38;100.00
70370;BME280;57790;51.356;-2.906;2023-09-19T10:10:41;100574.91;;;16.39;100.00
70370;BME280;57790;51.356;-2.906;2023-09-19T10:13:42;100571.22;;;16.40;100.00
70370;BME280;57790;51.356;-2.906;2023-09-19T10:16:46;100565.03;;;16.40;100.00
70370;BME280;57790;51.356;-2.906;2023-09-19T10:19:54;100575.31;;;16.43;100.00
70370;BME280;57790;51.356;-2.906;2023-09-19T10:22:57;100564.41;;;16.44;100.00
70370;BME280;57790;51.356;-2.906;2023-09-19T10:26:00;100566.88;;;16.46;100.00
70370;BME280;57790;51.356;-2.906;2023-09-19T10:29:02;100561.53;;;16.52;100.00
70370;BME280;57790;51.356;-2.906;2023-09-19T10:32:07;100560.72;;;16.52;100.00
70370;BME280;57790;51.356;-2.906;2023-09-19T10:35:11;100555.38;;;16.52;100.00
70370;BME280;57790;51.356;-2.906;2023-09-19T10:38:15;100557.41;;;16.56;100.00
70370;BME280;57790;51.356;-2.906;2023-09-19T10:41:19;100556.38;;;16.57;100.00
70370;BME280;57790;51.356;-2.906;2023-09-19T10:44:25;100558.84;;;16.59;100.00
70370;BME280;57790;51.356;-2.906;2023-09-19T10:47:26;100561.34;;;16.54;100.00
70370;BME280;57790;51.356;-2.906;2023-09-19T10:50:41;100564.00;;;16.54;100.00
70370;BME280;57790;51.356;-2.906;2023-09-19T10:54:08;100567.91;;;16.58;100.00
70370;BME280;57790;51.356;-2.906;2023-09-19T10:57:19;100561.31;;;16.60;100.00
70370;BME280;57790;51.356;-2.906;2023-09-19T11:00:21;100564.81;;;16.61;100.00
70370;BME280;57790;51.356;-2.906;2023-09-19T11:03:28;100571.81;;;16.62;100.00
70370;BME280;57790;51.356;-2.906;2023-09-19T11:06:32;100555.75;;;16.62;100.00
70370;BME280;57790;51.356;-2.906;2023-09-19T11:09:54;100572.25;;;16.65;100.00
70370;BME280;57790;51.356;-2.906;2023-09-19T11:12:57;100567.72;;;16.66;100.00
70370;BME280;57790;51.356;-2.906;2023-09-19T11:18:58;100565.88;;;16.66;100.00
70370;BME280;57790;51.356;-2.906;2023-09-19T11:22:01;100564.66;;;16.69;100.00
70370;BME280;57790;51.356;-2.906;2023-09-19T11:28:31;100563.19;;;16.73;100.00
70370;BME280;57790;51.356;-2.906;2023-09-19T11:31:43;100557.03;;;16.73;100.00
70370;BME280;57790;51.356;-2.906;2023-09-19T11:34:45;100555.78;;;16.75;100.00
70370;BME280;57790;51.356;-2.906;2023-09-19T11:40:47;100556.41;;;16.77;100.00
70370;BME280;57790;51.356;-2.906;2023-09-19T11:47:10;100563.81;;;16.75;100.00
70370;BME280;57790;51.356;-2.906;2023-09-19T11:50:11;100580.31;;;16.79;100.00
70370;BME280;57790;51.356;-2.906;2023-09-19T11:53:12;100565.69;;;16.81;100.00
70370;BME280;57790;51.356;-2.906;2023-09-19T11:56:13;100569.19;;;16.82;100.00
70370;BME280;57790;51.356;-2.906;2023-09-19T11:59:22;100568.97;;;16.83;100.00
70370;BME280;57790;51.356;-2.906;2023-09-19T12:02:39;100570.41;;;16.86;100.00
70370;BME280;57790;51.356;-2.906;2023-09-19T12:05:42;100565.66;;;16.88;100.00
70370;BME280;57790;51.356;-2.906;2023-09-19T12:08:43;100563.59;;;16.90;100.00
70370;BME280;57790;51.356;-2.906;2023-09-19T12:11:46;100571.84;;;16.95;100.00
70370;BME280;57790;51.356;-2.906;2023-09-19T12:14:50;100569.38;;;16.93;100.00
70370;BME280;57790;51.356;-2.906;2023-09-19T12:17:51;100573.91;;;16.93;100.00
70370;BME280;57790;51.356;-2.906;2023-09-19T12:20:52;100563.81;;;16.95;100.00
70370;BME280;57790;51.356;-2.906;2023-09-19T12:27:06;100533.31;;;16.96;100.00
70370;BME280;57790;51.356;-2.906;2023-09-19T12:30:07;100534.75;;;16.99;100.00
70370;BME280;57790;51.356;-2.906;2023-09-19T12:33:18;100540.09;;;16.99;100.00
70370;BME280;57790;51.356;-2.906;2023-09-19T12:36:21;100552.03;;;17.03;100.00
70370;BME280;57790;51.356;-2.906;2023-09-19T12:39:29;100561.13;;;17.08;100.00
70370;BME280;57790;51.356;-2.906;2023-09-19T12:42:30;100570.78;;;17.09;100.00
70370;BME280;57790;51.356;-2.906;2023-09-19T12:45:35;100582.53;;;17.08;100.00
70370;BME280;57790;51.356;-2.906;2023-09-19T12:48:37;100597.16;;;17.12;100.00
70370;BME280;57790;51.356;-2.906;2023-09-19T12:51:45;100596.34;;;17.12;100.00
70370;BME280;57790;51.356;-2.906;2023-09-19T12:54:46;100593.66;;;17.12;100.00
70370;BME280;57790;51.356;-2.906;2023-09-19T12:58:09;100591.38;;;17.15;100.00
70370;BME280;57790;51.356;-2.906;2023-09-19T13:01:16;100593.22;;;17.15;100.00
70370;BME280;57790;51.356;-2.906;2023-09-19T13:07:45;100591.97;;;17.17;100.00
70370;BME280;57790;51.356;-2.906;2023-09-19T13:14:26;100570.34;;;17.19;100.00
70370;BME280;57790;51.356;-2.906;2023-09-19T13:17:43;100571.16;;;17.19;100.00
70370;BME280;57790;51.356;-2.906;2023-09-19T13:21:06;100571.59;;;17.23;100.00
70370;BME280;57790;51.356;-2.906;2023-09-19T13:24:24;100566.84;;;17.25;100.00
70370;BME280;57790;51.356;-2.906;2023-09-19T13:27:32;100555.91;;;17.27;100.00
70370;BME280;57790;51.356;-2.906;2023-09-19T13:30:37;100559.19;;;17.29;100.00
70370;BME280;57790;51.356;-2.906;2023-09-19T13:33:48;100550.72;;;17.32;100.00
70370;BME280;57790;51.356;-2.906;2023-09-19T13:36:49;100553.63;;;17.37;100.00
70370;BME280;57790;51.356;-2.906;2023-09-19T13:39:49;100551.53;;;17.39;100.00
70370;BME280;57790;51.356;-2.906;2023-09-19T13:42:49;100550.28;;;17.41;100.00
70370;BME280;57790;51.356;-2.906;2023-09-19T13:45:53;100549.25;;;17.42;100.00
70370;BME280;57790;51.356;-2.906;2023-09-19T13:48:54;100538.09;;;17.45;100.00
70370;BME280;57790;51.356;-2.906;2023-09-19T13:51:59;100544.06;;;17.47;100.00
70370;BME280;57790;51.356;-2.906;2023-09-19T13:55:03;100540.56;;;17.53;100.00
70370;BME280;57790;51.356;-2.906;2023-09-19T13:58:05;100547.13;;;17.58;100.00
70370;BME280;57790;51.356;-2.906;2023-09-19T14:01:07;100535.16;;;17.60;100.00
70370;BME280;57790;51.356;-2.906;2023-09-19T14:04:12;100545.66;;;17.62;100.00
70370;BME280;57790;51.356;-2.906;2023-09-19T14:07:13;100536.34;;;17.64;100.00
70370;BME280;57790;51.356;-2.906;2023-09-19T14:10:15;100539.06;;;17.71;100.00
70370;BME280;57790;51.356;-2.906;2023-09-19T14:13:16;100543.53;;;17.77;100.00
70370;BME280;57790;51.356;-2.906;2023-09-19T14:16:16;100540.88;;;17.77;100.00
70370;BME280;57790;51.356;-2.906;2023-09-19T14:19:18;100538.59;;;17.80;100.00
70370;BME280;57790;51.356;-2.906;2023-09-19T14:22:18;100530.13;;;17.83;100.00
70370;BME280;57790;51.356;-2.906;2023-09-19T14:25:19;100542.72;;;17.83;100.00
70370;BME280;57790;51.356;-2.906;2023-09-19T14:28:19;100545.56;;;17.88;100.00
70370;BME280;57790;51.356;-2.906;2023-09-19T14:31:20;100543.91;;;17.87;100.00
70370;BME280;57790;51.356;-2.906;2023-09-19T14:34:20;100538.56;;;17.87;100.00
70370;BME280;57790;51.356;-2.906;2023-09-19T14:37:20;100546.81;;;17.86;100.00
70370;BME280;57790;51.356;-2.906;2023-09-19T14:40:25;100541.84;;;17.89;100.00
70370;BME280;57790;51.356;-2.906;2023-09-19T14:43:27;100558.53;;;17.91;100.00
70370;BME280;57790;51.356;-2.906;2023-09-19T14:46:30;100565.31;;;17.94;100.00
70370;BME280;57790;51.356;-2.906;2023-09-19T14:49:33;100567.59;;;17.97;100.00
70370;BME280;57790;51.356;-2.906;2023-09-19T14:52:34;100567.16;;;18.00;100.00
70370;BME280;57790;51.356;-2.906;2023-09-19T14:55:37;100567.75;;;18.02;100.00
70370;BME280;57790;51.356;-2.906;2023-09-19T14:58:41;100570.63;;;18.07;100.00
70370;BME280;57790;51.356;-2.906;2023-09-19T15:01:42;100570.44;;;18.08;100.00
70370;BME280;57790;51.356;-2.906;2023-09-19T15:04:43;100564.03;;;18.09;100.00
70370;BME280;57790;51.356;-2.906;2023-09-19T15:07:47;100558.66;;;18.09;100.00
70370;BME280;57790;51.356;-2.906;2023-09-19T15:10:50;100570.81;;;18.12;100.00
70370;BME280;57790;51.356;-2.906;2023-09-19T15:13:53;100566.69;;;18.09;100.00
70370;BME280;57790;51.356;-2.906;2023-09-19T15:16:57;100568.34;;;18.10;100.00
70370;BME280;57790;51.356;-2.906;2023-09-19T15:19:57;100569.78;;;18.13;100.00
70370;BME280;57790;51.356;-2.906;2023-09-19T15:22:57;100559.25;;;18.11;100.00
70370;BME280;57790;51.356;-2.906;2023-09-19T15:25:58;100559.25;;;18.11;100.00
70370;BME280;57790;51.356;-2.906;2023-09-19T15:28:59;100563.59;;;18.12;100.00
70370;BME280;57790;51.356;-2.906;2023-09-19T15:32:00;100553.88;;;18.11;100.00
70370;BME280;57790;51.356;-2.906;2023-09-19T15:35:02;100560.06;;;18.12;100.00
70370;BME280;57790;51.356;-2.906;2023-09-19T15:38:03;100553.88;;;18.11;100.00
70370;BME280;57790;51.356;-2.906;2023-09-19T15:41:04;100560.91;;;18.12;100.00
70370;BME280;57790;51.356;-2.906;2023-09-19T15:44:11;100568.94;;;18.12;100.00
70370;BME280;57790;51.356;-2.906;2023-09-19T15:47:12;100560.91;;;18.12;100.00
70370;BME280;57790;51.356;-2.906;2023-09-19T15:50:13;100561.94;;;18.11;100.00
70370;BME280;57790;51.356;-2.906;2023-09-19T15:53:15;100559.84;;;18.13;100.00
70370;BME280;57790;51.356;-2.906;2023-09-19T15:56:17;100564.41;;;18.13;100.00
70370;BME280;57790;51.356;-2.906;2023-09-19T15:59:18;100559.41;;;18.17;100.00
70370;BME280;57790;51.356;-2.906;2023-09-19T16:02:18;100560.03;;;18.19;100.00
70370;BME280;57790;51.356;-2.906;2023-09-19T16:05:19;100561.44;;;18.21;100.00
70370;BME280;57790;51.356;-2.906;2023-09-19T16:08:19;100563.94;;;18.23;100.00